Terminal Aerodrome Forecast
Issued by NWS Melbourne, FL

Home | Current Version | Previous Version | Text Only | Print | Product List | Glossary On
Versions: 1 2 3 4 5 6 7 8 9 10 11 12
000
FTUS42 KMLB 201132
TAFMLB
TAF
KMLB 201132Z 2012/2112 00000KT P6SM BKN250
     FM201600 07008KT P6SM SCT040 BKN120
     FM210000 04004KT P6SM BKN100=

USA.gov is the U.S. government's official web portal to all federal, state and local government web resources and services.